sensor_id;sensor_type;location;lat;lon;timestamp;P1;durP1;ratioP1;P2;durP2;ratioP2
25824;SDS011;13658;44.534;18.694;2022-10-23T00:01:27;51.55;;;35.10;;
25824;SDS011;13658;44.534;18.694;2022-10-23T00:03:57;55.83;;;35.58;;
25824;SDS011;13658;44.534;18.694;2022-10-23T00:06:31;51.30;;;35.25;;
25824;SDS011;13658;44.534;18.694;2022-10-23T00:08:59;52.35;;;33.63;;
25824;SDS011;13658;44.534;18.694;2022-10-23T00:11:26;52.47;;;34.08;;
25824;SDS011;13658;44.534;18.694;2022-10-23T00:13:54;54.58;;;33.92;;
25824;SDS011;13658;44.534;18.694;2022-10-23T00:16:22;48.80;;;33.47;;
25824;SDS011;13658;44.534;18.694;2022-10-23T00:18:48;48.97;;;31.85;;
25824;SDS011;13658;44.534;18.694;2022-10-23T00:21:14;47.22;;;29.85;;
25824;SDS011;13658;44.534;18.694;2022-10-23T00:23:42;44.50;;;29.75;;
25824;SDS011;13658;44.534;18.694;2022-10-23T00:26:08;44.58;;;29.33;;
25824;SDS011;13658;44.534;18.694;2022-10-23T00:28:44;44.50;;;29.40;;
25824;SDS011;13658;44.534;18.694;2022-10-23T00:31:12;46.30;;;29.08;;
25824;SDS011;13658;44.534;18.694;2022-10-23T00:33:39;43.92;;;28.75;;
25824;SDS011;13658;44.534;18.694;2022-10-23T00:36:06;43.33;;;28.00;;
25824;SDS011;13658;44.534;18.694;2022-10-23T00:38:33;42.63;;;27.73;;
25824;SDS011;13658;44.534;18.694;2022-10-23T00:41:01;44.25;;;27.40;;
25824;SDS011;13658;44.534;18.694;2022-10-23T00:43:28;46.40;;;27.70;;
25824;SDS011;13658;44.534;18.694;2022-10-23T00:45:55;45.78;;;28.67;;
25824;SDS011;13658;44.534;18.694;2022-10-23T00:48:21;44.75;;;29.05;;
25824;SDS011;13658;44.534;18.694;2022-10-23T00:50:49;43.97;;;27.92;;
25824;SDS011;13658;44.534;18.694;2022-10-23T00:53:16;46.17;;;28.67;;
25824;SDS011;13658;44.534;18.694;2022-10-23T00:55:44;47.75;;;33.70;;
25824;SDS011;13658;44.534;18.694;2022-10-23T00:58:12;48.65;;;32.42;;
25824;SDS011;13658;44.534;18.694;2022-10-23T01:00:43;51.05;;;31.15;;
25824;SDS011;13658;44.534;18.694;2022-10-23T01:03:09;51.63;;;33.05;;
25824;SDS011;13658;44.534;18.694;2022-10-23T01:06:20;53.10;;;32.42;;
25824;SDS011;13658;44.534;18.694;2022-10-23T01:08:55;60.45;;;34.13;;
25824;SDS011;13658;44.534;18.694;2022-10-23T01:11:42;60.65;;;36.13;;
25824;SDS011;13658;44.534;18.694;2022-10-23T01:20:00;48.55;;;30.42;;
25824;SDS011;13658;44.534;18.694;2022-10-23T01:25:26;57.55;;;32.35;;
25824;SDS011;13658;44.534;18.694;2022-10-23T01:27:55;55.40;;;32.53;;
25824;SDS011;13658;44.534;18.694;2022-10-23T01:30:25;50.55;;;32.55;;
25824;SDS011;13658;44.534;18.694;2022-10-23T01:33:03;49.13;;;31.08;;
25824;SDS011;13658;44.534;18.694;2022-10-23T01:35:42;57.35;;;33.33;;
25824;SDS011;13658;44.534;18.694;2022-10-23T01:38:16;48.50;;;31.48;;
25824;SDS011;13658;44.534;18.694;2022-10-23T01:40:47;48.65;;;31.02;;
25824;SDS011;13658;44.534;18.694;2022-10-23T01:43:19;55.95;;;32.22;;
25824;SDS011;13658;44.534;18.694;2022-10-23T01:45:54;51.85;;;31.85;;
25824;SDS011;13658;44.534;18.694;2022-10-23T01:48:25;53.10;;;31.77;;
25824;SDS011;13658;44.534;18.694;2022-10-23T01:50:54;54.45;;;32.80;;
25824;SDS011;13658;44.534;18.694;2022-10-23T01:53:25;51.65;;;30.42;;
25824;SDS011;13658;44.534;18.694;2022-10-23T01:55:55;49.22;;;30.38;;
25824;SDS011;13658;44.534;18.694;2022-10-23T01:58:24;50.80;;;30.85;;
25824;SDS011;13658;44.534;18.694;2022-10-23T02:00:54;51.08;;;29.73;;
25824;SDS011;13658;44.534;18.694;2022-10-23T02:03:26;46.85;;;28.55;;
25824;SDS011;13658;44.534;18.694;2022-10-23T02:05:56;50.13;;;28.60;;
25824;SDS011;13658;44.534;18.694;2022-10-23T02:08:22;59.05;;;30.60;;
25824;SDS011;13658;44.534;18.694;2022-10-23T02:13:32;57.40;;;32.00;;
25824;SDS011;13658;44.534;18.694;2022-10-23T02:16:05;58.75;;;31.67;;
25824;SDS011;13658;44.534;18.694;2022-10-23T02:21:20;61.28;;;33.15;;
25824;SDS011;13658;44.534;18.694;2022-10-23T02:23:56;66.60;;;35.72;;
25824;SDS011;13658;44.534;18.694;2022-10-23T02:26:29;48.07;;;29.50;;
25824;SDS011;13658;44.534;18.694;2022-10-23T02:29:08;55.10;;;30.58;;
25824;SDS011;13658;44.534;18.694;2022-10-23T02:31:41;54.50;;;31.08;;
25824;SDS011;13658;44.534;18.694;2022-10-23T02:34:08;56.88;;;32.33;;
25824;SDS011;13658;44.534;18.694;2022-10-23T02:36:34;67.07;;;33.08;;
25824;SDS011;13658;44.534;18.694;2022-10-23T02:39:01;57.72;;;32.88;;
25824;SDS011;13658;44.534;18.694;2022-10-23T02:41:45;58.83;;;32.00;;
25824;SDS011;13658;44.534;18.694;2022-10-23T02:44:27;58.97;;;32.92;;
25824;SDS011;13658;44.534;18.694;2022-10-23T02:49:50;59.05;;;32.20;;
25824;SDS011;13658;44.534;18.694;2022-10-23T02:57:49;61.60;;;32.10;;
25824;SDS011;13658;44.534;18.694;2022-10-23T03:00:23;50.80;;;31.17;;
25824;SDS011;13658;44.534;18.694;2022-10-23T03:05:29;53.53;;;31.15;;
25824;SDS011;13658;44.534;18.694;2022-10-23T03:07:57;50.17;;;28.95;;
25824;SDS011;13658;44.534;18.694;2022-10-23T03:10:24;55.83;;;30.92;;
25824;SDS011;13658;44.534;18.694;2022-10-23T03:16:32;51.22;;;29.13;;
25824;SDS011;13658;44.534;18.694;2022-10-23T03:18:58;52.97;;;29.08;;
25824;SDS011;13658;44.534;18.694;2022-10-23T03:21:27;52.08;;;29.35;;
25824;SDS011;13658;44.534;18.694;2022-10-23T03:23:54;52.60;;;28.50;;
25824;SDS011;13658;44.534;18.694;2022-10-23T03:26:30;49.83;;;28.05;;
25824;SDS011;13658;44.534;18.694;2022-10-23T03:28:56;53.40;;;28.83;;
25824;SDS011;13658;44.534;18.694;2022-10-23T03:31:22;48.28;;;28.40;;
25824;SDS011;13658;44.534;18.694;2022-10-23T03:33:53;47.05;;;27.35;;
25824;SDS011;13658;44.534;18.694;2022-10-23T03:37:15;49.97;;;29.10;;
25824;SDS011;13658;44.534;18.694;2022-10-23T03:39:42;49.22;;;28.80;;
25824;SDS011;13658;44.534;18.694;2022-10-23T03:42:08;48.35;;;30.25;;
25824;SDS011;13658;44.534;18.694;2022-10-23T03:44:34;53.53;;;28.95;;
25824;SDS011;13658;44.534;18.694;2022-10-23T03:47:01;49.65;;;29.60;;
25824;SDS011;13658;44.534;18.694;2022-10-23T03:49:27;53.83;;;29.38;;
25824;SDS011;13658;44.534;18.694;2022-10-23T03:52:00;50.47;;;29.42;;
25824;SDS011;13658;44.534;18.694;2022-10-23T03:54:27;51.70;;;28.80;;
25824;SDS011;13658;44.534;18.694;2022-10-23T03:56:54;49.33;;;28.08;;
25824;SDS011;13658;44.534;18.694;2022-10-23T03:59:21;54.25;;;29.23;;
25824;SDS011;13658;44.534;18.694;2022-10-23T04:01:47;52.78;;;29.40;;
25824;SDS011;13658;44.534;18.694;2022-10-23T04:04:13;51.50;;;28.75;;
25824;SDS011;13658;44.534;18.694;2022-10-23T04:06:41;49.53;;;27.80;;
25824;SDS011;13658;44.534;18.694;2022-10-23T04:09:07;52.13;;;28.83;;
25824;SDS011;13658;44.534;18.694;2022-10-23T04:11:33;53.78;;;28.65;;
25824;SDS011;13658;44.534;18.694;2022-10-23T04:13:59;51.42;;;28.60;;
25824;SDS011;13658;44.534;18.694;2022-10-23T04:16:25;50.60;;;28.63;;
25824;SDS011;13658;44.534;18.694;2022-10-23T04:18:51;48.10;;;28.02;;
25824;SDS011;13658;44.534;18.694;2022-10-23T04:21:17;52.40;;;29.77;;
25824;SDS011;13658;44.534;18.694;2022-10-23T04:23:43;58.17;;;31.40;;
25824;SDS011;13658;44.534;18.694;2022-10-23T04:26:16;56.30;;;31.40;;
25824;SDS011;13658;44.534;18.694;2022-10-23T04:28:43;56.33;;;31.02;;
25824;SDS011;13658;44.534;18.694;2022-10-23T04:31:09;55.60;;;30.48;;
25824;SDS011;13658;44.534;18.694;2022-10-23T04:33:38;51.65;;;29.40;;
25824;SDS011;13658;44.534;18.694;2022-10-23T04:36:05;57.65;;;30.48;;
25824;SDS011;13658;44.534;18.694;2022-10-23T04:38:31;57.25;;;30.48;;
25824;SDS011;13658;44.534;18.694;2022-10-23T04:40:59;49.17;;;27.70;;
25824;SDS011;13658;44.534;18.694;2022-10-23T04:43:25;45.20;;;27.02;;
25824;SDS011;13658;44.534;18.694;2022-10-23T04:45:51;46.35;;;26.67;;
25824;SDS011;13658;44.534;18.694;2022-10-23T04:48:18;47.40;;;27.15;;
25824;SDS011;13658;44.534;18.694;2022-10-23T04:51:10;46.53;;;29.27;;
25824;SDS011;13658;44.534;18.694;2022-10-23T04:54:05;43.47;;;26.85;;
25824;SDS011;13658;44.534;18.694;2022-10-23T04:56:40;51.38;;;28.40;;
25824;SDS011;13658;44.534;18.694;2022-10-23T04:59:11;45.88;;;26.05;;
25824;SDS011;13658;44.534;18.694;2022-10-23T05:01:38;43.47;;;25.17;;
25824;SDS011;13658;44.534;18.694;2022-10-23T05:04:06;40.72;;;25.00;;
25824;SDS011;13658;44.534;18.694;2022-10-23T05:06:39;41.08;;;23.88;;
25824;SDS011;13658;44.534;18.694;2022-10-23T05:09:34;43.63;;;25.77;;
25824;SDS011;13658;44.534;18.694;2022-10-23T05:12:24;43.92;;;24.90;;
25824;SDS011;13658;44.534;18.694;2022-10-23T05:14:53;41.88;;;25.13;;
25824;SDS011;13658;44.534;18.694;2022-10-23T05:17:26;44.35;;;25.80;;
25824;SDS011;13658;44.534;18.694;2022-10-23T05:19:57;50.78;;;27.90;;
25824;SDS011;13658;44.534;18.694;2022-10-23T05:22:28;50.17;;;27.55;;
25824;SDS011;13658;44.534;18.694;2022-10-23T05:24:56;59.42;;;29.10;;
25824;SDS011;13658;44.534;18.694;2022-10-23T05:27:24;59.38;;;29.65;;
25824;SDS011;13658;44.534;18.694;2022-10-23T05:29:52;69.28;;;31.65;;
25824;SDS011;13658;44.534;18.694;2022-10-23T05:32:23;68.15;;;31.58;;
25824;SDS011;13658;44.534;18.694;2022-10-23T05:34:51;74.45;;;32.60;;
25824;SDS011;13658;44.534;18.694;2022-10-23T05:37:18;78.55;;;33.72;;
25824;SDS011;13658;44.534;18.694;2022-10-23T05:42:42;85.60;;;35.42;;
25824;SDS011;13658;44.534;18.694;2022-10-23T05:45:10;74.28;;;34.90;;
25824;SDS011;13658;44.534;18.694;2022-10-23T05:48:02;71.82;;;34.92;;
25824;SDS011;13658;44.534;18.694;2022-10-23T05:50:48;69.35;;;33.70;;
25824;SDS011;13658;44.534;18.694;2022-10-23T05:53:23;76.68;;;33.85;;
25824;SDS011;13658;44.534;18.694;2022-10-23T05:56:10;72.65;;;33.20;;
25824;SDS011;13658;44.534;18.694;2022-10-23T05:58:45;75.13;;;34.55;;
25824;SDS011;13658;44.534;18.694;2022-10-23T06:01:29;79.30;;;34.72;;
25824;SDS011;13658;44.534;18.694;2022-10-23T06:03:59;79.82;;;35.95;;
25824;SDS011;13658;44.534;18.694;2022-10-23T06:06:46;83.55;;;36.88;;
25824;SDS011;13658;44.534;18.694;2022-10-23T06:09:13;82.65;;;35.63;;
25824;SDS011;13658;44.534;18.694;2022-10-23T06:11:40;92.57;;;33.88;;
25824;SDS011;13658;44.534;18.694;2022-10-23T06:14:11;86.07;;;34.53;;
25824;SDS011;13658;44.534;18.694;2022-10-23T06:16:38;94.82;;;34.30;;
25824;SDS011;13658;44.534;18.694;2022-10-23T06:19:04;93.78;;;35.65;;
25824;SDS011;13658;44.534;18.694;2022-10-23T06:21:31;86.53;;;35.67;;
25824;SDS011;13658;44.534;18.694;2022-10-23T06:24:02;94.93;;;33.70;;
25824;SDS011;13658;44.534;18.694;2022-10-23T06:26:36;89.35;;;36.08;;
25824;SDS011;13658;44.534;18.694;2022-10-23T06:29:08;91.13;;;37.83;;
25824;SDS011;13658;44.534;18.694;2022-10-23T06:31:35;78.57;;;33.15;;
25824;SDS011;13658;44.534;18.694;2022-10-23T06:34:02;94.13;;;38.92;;
25824;SDS011;13658;44.534;18.694;2022-10-23T06:36:29;88.55;;;35.00;;
25824;SDS011;13658;44.534;18.694;2022-10-23T06:39:09;71.63;;;30.77;;
25824;SDS011;13658;44.534;18.694;2022-10-23T06:41:59;80.70;;;33.88;;
25824;SDS011;13658;44.534;18.694;2022-10-23T06:44:51;73.82;;;29.33;;
25824;SDS011;13658;44.534;18.694;2022-10-23T06:47:36;65.90;;;29.55;;
25824;SDS011;13658;44.534;18.694;2022-10-23T06:50:21;59.97;;;27.98;;
25824;SDS011;13658;44.534;18.694;2022-10-23T06:52:47;56.03;;;26.52;;
25824;SDS011;13658;44.534;18.694;2022-10-23T06:55:16;51.67;;;26.50;;
25824;SDS011;13658;44.534;18.694;2022-10-23T06:57:43;56.25;;;26.55;;
25824;SDS011;13658;44.534;18.694;2022-10-23T07:00:09;61.22;;;28.00;;
25824;SDS011;13658;44.534;18.694;2022-10-23T07:02:45;54.80;;;28.05;;
25824;SDS011;13658;44.534;18.694;2022-10-23T07:05:12;55.08;;;29.20;;
25824;SDS011;13658;44.534;18.694;2022-10-23T07:07:38;58.35;;;31.35;;
25824;SDS011;13658;44.534;18.694;2022-10-23T07:10:04;53.45;;;28.33;;
25824;SDS011;13658;44.534;18.694;2022-10-23T07:12:39;55.53;;;28.05;;
25824;SDS011;13658;44.534;18.694;2022-10-23T07:15:23;55.78;;;29.08;;
25824;SDS011;13658;44.534;18.694;2022-10-23T07:17:53;45.75;;;27.55;;
25824;SDS011;13658;44.534;18.694;2022-10-23T07:20:21;41.92;;;24.27;;
25824;SDS011;13658;44.534;18.694;2022-10-23T07:22:54;47.20;;;25.45;;
25824;SDS011;13658;44.534;18.694;2022-10-23T07:25:26;45.10;;;25.45;;
25824;SDS011;13658;44.534;18.694;2022-10-23T07:27:52;45.63;;;25.77;;
25824;SDS011;13658;44.534;18.694;2022-10-23T07:30:22;46.53;;;27.13;;
25824;SDS011;13658;44.534;18.694;2022-10-23T07:32:53;45.42;;;26.65;;
25824;SDS011;13658;44.534;18.694;2022-10-23T07:38:11;45.58;;;26.52;;
25824;SDS011;13658;44.534;18.694;2022-10-23T07:40:42;44.95;;;27.40;;
25824;SDS011;13658;44.534;18.694;2022-10-23T07:43:10;48.10;;;27.13;;
25824;SDS011;13658;44.534;18.694;2022-10-23T07:45:36;46.72;;;28.48;;
25824;SDS011;13658;44.534;18.694;2022-10-23T07:48:25;43.88;;;26.67;;
25824;SDS011;13658;44.534;18.694;2022-10-23T07:51:02;47.65;;;29.23;;
25824;SDS011;13658;44.534;18.694;2022-10-23T07:53:36;48.83;;;28.52;;
25824;SDS011;13658;44.534;18.694;2022-10-23T07:56:28;43.28;;;28.27;;
25824;SDS011;13658;44.534;18.694;2022-10-23T08:01:45;43.83;;;28.27;;
25824;SDS011;13658;44.534;18.694;2022-10-23T08:04:13;40.72;;;26.45;;
25824;SDS011;13658;44.534;18.694;2022-10-23T08:06:52;38.72;;;25.38;;
25824;SDS011;13658;44.534;18.694;2022-10-23T08:09:20;32.85;;;23.17;;
25824;SDS011;13658;44.534;18.694;2022-10-23T08:11:47;31.83;;;22.35;;
25824;SDS011;13658;44.534;18.694;2022-10-23T08:14:16;31.52;;;21.80;;
25824;SDS011;13658;44.534;18.694;2022-10-23T08:16:44;29.92;;;21.67;;
25824;SDS011;13658;44.534;18.694;2022-10-23T08:19:16;31.33;;;22.65;;
25824;SDS011;13658;44.534;18.694;2022-10-23T08:21:44;48.22;;;32.92;;
25824;SDS011;13658;44.534;18.694;2022-10-23T08:24:12;55.28;;;38.97;;
25824;SDS011;13658;44.534;18.694;2022-10-23T08:26:39;39.03;;;26.20;;
25824;SDS011;13658;44.534;18.694;2022-10-23T08:29:06;33.55;;;24.98;;
25824;SDS011;13658;44.534;18.694;2022-10-23T08:31:33;31.67;;;22.83;;
25824;SDS011;13658;44.534;18.694;2022-10-23T08:34:31;37.78;;;26.75;;
25824;SDS011;13658;44.534;18.694;2022-10-23T08:37:00;34.92;;;25.40;;
25824;SDS011;13658;44.534;18.694;2022-10-23T08:39:27;34.35;;;25.98;;
25824;SDS011;13658;44.534;18.694;2022-10-23T08:42:23;30.83;;;23.90;;
25824;SDS011;13658;44.534;18.694;2022-10-23T08:44:58;29.70;;;22.75;;
25824;SDS011;13658;44.534;18.694;2022-10-23T08:47:46;29.40;;;21.25;;
25824;SDS011;13658;44.534;18.694;2022-10-23T08:50:54;24.88;;;18.05;;
25824;SDS011;13658;44.534;18.694;2022-10-23T08:53:40;23.55;;;18.08;;
25824;SDS011;13658;44.534;18.694;2022-10-23T08:56:26;22.55;;;16.50;;
25824;SDS011;13658;44.534;18.694;2022-10-23T09:01:57;22.85;;;14.93;;
25824;SDS011;13658;44.534;18.694;2022-10-23T09:04:27;16.00;;;12.10;;
25824;SDS011;13658;44.534;18.694;2022-10-23T09:12:30;26.02;;;20.55;;
25824;SDS011;13658;44.534;18.694;2022-10-23T09:17:53;15.13;;;13.30;;
25824;SDS011;13658;44.534;18.694;2022-10-23T09:20:41;15.10;;;13.25;;
25824;SDS011;13658;44.534;18.694;2022-10-23T09:23:16;14.85;;;13.20;;
25824;SDS011;13658;44.534;18.694;2022-10-23T09:25:45;16.33;;;12.95;;
25824;SDS011;13658;44.534;18.694;2022-10-23T09:28:20;14.35;;;12.60;;
25824;SDS011;13658;44.534;18.694;2022-10-23T09:30:47;18.23;;;13.18;;
25824;SDS011;13658;44.534;18.694;2022-10-23T09:33:22;31.63;;;25.30;;
25824;SDS011;13658;44.534;18.694;2022-10-23T09:38:44;29.48;;;22.65;;
25824;SDS011;13658;44.534;18.694;2022-10-23T09:43:57;19.17;;;14.82;;
25824;SDS011;13658;44.534;18.694;2022-10-23T09:46:47;20.92;;;15.43;;
25824;SDS011;13658;44.534;18.694;2022-10-23T09:49:26;19.45;;;16.02;;
25824;SDS011;13658;44.534;18.694;2022-10-23T09:54:36;22.00;;;17.58;;
25824;SDS011;13658;44.534;18.694;2022-10-23T10:00:04;26.50;;;17.48;;
25824;SDS011;13658;44.534;18.694;2022-10-23T10:02:54;19.33;;;16.65;;
25824;SDS011;13658;44.534;18.694;2022-10-23T10:05:31;21.58;;;16.63;;
25824;SDS011;13658;44.534;18.694;2022-10-23T10:08:21;17.17;;;15.38;;
25824;SDS011;13658;44.534;18.694;2022-10-23T10:10:59;24.83;;;17.80;;
25824;SDS011;13658;44.534;18.694;2022-10-23T10:21:52;22.90;;;15.15;;
25824;SDS011;13658;44.534;18.694;2022-10-23T10:24:28;18.98;;;14.38;;
25824;SDS011;13658;44.534;18.694;2022-10-23T10:29:56;20.20;;;14.40;;
25824;SDS011;13658;44.534;18.694;2022-10-23T10:32:34;33.75;;;22.80;;
25824;SDS011;13658;44.534;18.694;2022-10-23T10:40:29;17.40;;;13.45;;
25824;SDS011;13658;44.534;18.694;2022-10-23T10:48:17;28.55;;;22.33;;
25824;SDS011;13658;44.534;18.694;2022-10-23T10:51:46;20.80;;;14.00;;
25824;SDS011;13658;44.534;18.694;2022-10-23T10:54:38;21.17;;;13.23;;
25824;SDS011;13658;44.534;18.694;2022-10-23T10:57:20;23.20;;;14.60;;
25824;SDS011;13658;44.534;18.694;2022-10-23T10:59:56;30.80;;;20.25;;
25824;SDS011;13658;44.534;18.694;2022-10-23T11:02:56;17.85;;;11.73;;
25824;SDS011;13658;44.534;18.694;2022-10-23T11:05:28;19.02;;;12.15;;
25824;SDS011;13658;44.534;18.694;2022-10-23T11:08:00;17.10;;;11.30;;
25824;SDS011;13658;44.534;18.694;2022-10-23T11:10:37;21.67;;;14.13;;
25824;SDS011;13658;44.534;18.694;2022-10-23T11:13:23;20.70;;;12.85;;
25824;SDS011;13658;44.534;18.694;2022-10-23T11:15:49;23.95;;;12.50;;
25824;SDS011;13658;44.534;18.694;2022-10-23T11:18:22;23.45;;;11.35;;
25824;SDS011;13658;44.534;18.694;2022-10-23T11:29:18;19.35;;;11.60;;
25824;SDS011;13658;44.534;18.694;2022-10-23T11:32:02;20.50;;;10.40;;
25824;SDS011;13658;44.534;18.694;2022-10-23T11:37:07;18.30;;;11.35;;
25824;SDS011;13658;44.534;18.694;2022-10-23T11:39:33;22.60;;;13.27;;
25824;SDS011;13658;44.534;18.694;2022-10-23T11:42:13;23.33;;;13.27;;
25824;SDS011;13658;44.534;18.694;2022-10-23T11:44:53;22.00;;;13.02;;
25824;SDS011;13658;44.534;18.694;2022-10-23T11:47:35;19.30;;;12.05;;
25824;SDS011;13658;44.534;18.694;2022-10-23T11:52:33;22.55;;;13.40;;
25824;SDS011;13658;44.534;18.694;2022-10-23T11:55:17;20.75;;;13.52;;
25824;SDS011;13658;44.534;18.694;2022-10-23T11:57:58;19.42;;;12.18;;
25824;SDS011;13658;44.534;18.694;2022-10-23T12:00:27;20.45;;;11.25;;
25824;SDS011;13658;44.534;18.694;2022-10-23T12:02:55;18.17;;;11.07;;
25824;SDS011;13658;44.534;18.694;2022-10-23T12:05:29;22.60;;;11.73;;
25824;SDS011;13658;44.534;18.694;2022-10-23T12:08:00;19.02;;;11.15;;
25824;SDS011;13658;44.534;18.694;2022-10-23T12:10:34;16.55;;;10.82;;
25824;SDS011;13658;44.534;18.694;2022-10-23T12:15:56;18.80;;;8.30;;
25824;SDS011;13658;44.534;18.694;2022-10-23T12:18:22;19.60;;;9.23;;
25824;SDS011;13658;44.534;18.694;2022-10-23T12:29:34;15.32;;;9.85;;
25824;SDS011;13658;44.534;18.694;2022-10-23T12:32:29;28.58;;;16.42;;
25824;SDS011;13658;44.534;18.694;2022-10-23T12:40:35;20.00;;;12.00;;
25824;SDS011;13658;44.534;18.694;2022-10-23T12:43:01;18.15;;;10.98;;
25824;SDS011;13658;44.534;18.694;2022-10-23T12:45:37;17.42;;;10.50;;
25824;SDS011;13658;44.534;18.694;2022-10-23T12:48:05;17.75;;;10.98;;
25824;SDS011;13658;44.534;18.694;2022-10-23T12:50:31;18.95;;;11.00;;
25824;SDS011;13658;44.534;18.694;2022-10-23T12:52:59;17.50;;;10.75;;
25824;SDS011;13658;44.534;18.694;2022-10-23T12:55:44;19.35;;;11.10;;
25824;SDS011;13658;44.534;18.694;2022-10-23T12:58:21;13.60;;;8.75;;
25824;SDS011;13658;44.534;18.694;2022-10-23T13:00:56;17.00;;;8.90;;
25824;SDS011;13658;44.534;18.694;2022-10-23T13:03:24;13.35;;;7.70;;
25824;SDS011;13658;44.534;18.694;2022-10-23T13:05:52;18.55;;;9.00;;
25824;SDS011;13658;44.534;18.694;2022-10-23T13:08:23;12.07;;;7.35;;
25824;SDS011;13658;44.534;18.694;2022-10-23T13:11:15;16.30;;;7.32;;
25824;SDS011;13658;44.534;18.694;2022-10-23T13:13:47;15.43;;;7.90;;
25824;SDS011;13658;44.534;18.694;2022-10-23T13:16:14;17.20;;;8.15;;
25824;SDS011;13658;44.534;18.694;2022-10-23T13:18:45;18.02;;;8.43;;
25824;SDS011;13658;44.534;18.694;2022-10-23T13:21:16;18.15;;;8.15;;
25824;SDS011;13658;44.534;18.694;2022-10-23T13:23:45;19.33;;;9.07;;
25824;SDS011;13658;44.534;18.694;2022-10-23T13:26:24;15.07;;;8.82;;
25824;SDS011;13658;44.534;18.694;2022-10-23T13:28:58;17.60;;;8.43;;
25824;SDS011;13658;44.534;18.694;2022-10-23T13:31:29;17.90;;;9.70;;
25824;SDS011;13658;44.534;18.694;2022-10-23T13:36:30;20.40;;;11.38;;
25824;SDS011;13658;44.534;18.694;2022-10-23T13:39:01;16.45;;;9.93;;
25824;SDS011;13658;44.534;18.694;2022-10-23T13:41:38;16.08;;;9.57;;
25824;SDS011;13658;44.534;18.694;2022-10-23T13:44:05;15.18;;;8.13;;
25824;SDS011;13658;44.534;18.694;2022-10-23T13:46:31;17.92;;;8.20;;
25824;SDS011;13658;44.534;18.694;2022-10-23T13:48:58;16.05;;;8.10;;
25824;SDS011;13658;44.534;18.694;2022-10-23T13:51:25;13.60;;;8.43;;
25824;SDS011;13658;44.534;18.694;2022-10-23T13:53:54;12.68;;;7.05;;
25824;SDS011;13658;44.534;18.694;2022-10-23T13:56:22;10.93;;;6.65;;
25824;SDS011;13658;44.534;18.694;2022-10-23T13:58:50;14.63;;;7.20;;
25824;SDS011;13658;44.534;18.694;2022-10-23T14:01:22;14.95;;;7.45;;
25824;SDS011;13658;44.534;18.694;2022-10-23T14:03:50;17.55;;;8.23;;
25824;SDS011;13658;44.534;18.694;2022-10-23T14:06:16;14.00;;;7.93;;
25824;SDS011;13658;44.534;18.694;2022-10-23T14:08:43;18.05;;;9.18;;
25824;SDS011;13658;44.534;18.694;2022-10-23T14:11:10;14.73;;;8.50;;
25824;SDS011;13658;44.534;18.694;2022-10-23T14:13:37;16.75;;;8.35;;
25824;SDS011;13658;44.534;18.694;2022-10-23T14:16:03;18.63;;;8.23;;
25824;SDS011;13658;44.534;18.694;2022-10-23T14:18:29;18.10;;;8.50;;
25824;SDS011;13658;44.534;18.694;2022-10-23T14:20:59;17.05;;;9.05;;
25824;SDS011;13658;44.534;18.694;2022-10-23T14:23:26;20.60;;;10.13;;
25824;SDS011;13658;44.534;18.694;2022-10-23T14:25:52;29.15;;;16.30;;
25824;SDS011;13658;44.534;18.694;2022-10-23T14:28:18;27.83;;;15.40;;
25824;SDS011;13658;44.534;18.694;2022-10-23T14:30:47;29.65;;;16.05;;
25824;SDS011;13658;44.534;18.694;2022-10-23T14:33:13;35.72;;;17.80;;
25824;SDS011;13658;44.534;18.694;2022-10-23T14:35:40;28.55;;;16.33;;
25824;SDS011;13658;44.534;18.694;2022-10-23T14:38:07;25.60;;;13.95;;
25824;SDS011;13658;44.534;18.694;2022-10-23T14:40:37;22.65;;;13.45;;
25824;SDS011;13658;44.534;18.694;2022-10-23T14:43:04;57.92;;;32.83;;
25824;SDS011;13658;44.534;18.694;2022-10-23T14:45:30;69.25;;;41.30;;
25824;SDS011;13658;44.534;18.694;2022-10-23T14:47:56;84.93;;;48.00;;
25824;SDS011;13658;44.534;18.694;2022-10-23T14:50:25;75.80;;;50.05;;
25824;SDS011;13658;44.534;18.694;2022-10-23T14:52:51;65.75;;;43.10;;
25824;SDS011;13658;44.534;18.694;2022-10-23T14:55:17;61.83;;;39.22;;
25824;SDS011;13658;44.534;18.694;2022-10-23T14:57:43;58.97;;;38.67;;
25824;SDS011;13658;44.534;18.694;2022-10-23T15:00:09;60.78;;;37.22;;
25824;SDS011;13658;44.534;18.694;2022-10-23T15:02:36;59.88;;;37.70;;
25824;SDS011;13658;44.534;18.694;2022-10-23T15:05:02;64.45;;;39.67;;
25824;SDS011;13658;44.534;18.694;2022-10-23T15:07:30;59.58;;;39.40;;
25824;SDS011;13658;44.534;18.694;2022-10-23T15:09:56;59.03;;;37.05;;
25824;SDS011;13658;44.534;18.694;2022-10-23T15:12:22;55.38;;;38.80;;
25824;SDS011;13658;44.534;18.694;2022-10-23T15:14:48;62.25;;;38.60;;
25824;SDS011;13658;44.534;18.694;2022-10-23T15:17:14;54.75;;;36.85;;
25824;SDS011;13658;44.534;18.694;2022-10-23T15:19:43;54.55;;;36.42;;
25824;SDS011;13658;44.534;18.694;2022-10-23T15:22:09;63.08;;;41.10;;
25824;SDS011;13658;44.534;18.694;2022-10-23T15:24:35;71.30;;;41.97;;
25824;SDS011;13658;44.534;18.694;2022-10-23T15:27:01;59.67;;;40.72;;
25824;SDS011;13658;44.534;18.694;2022-10-23T15:29:27;65.78;;;41.90;;
25824;SDS011;13658;44.534;18.694;2022-10-23T15:31:54;77.75;;;48.30;;
25824;SDS011;13658;44.534;18.694;2022-10-23T15:34:26;74.88;;;47.47;;
25824;SDS011;13658;44.534;18.694;2022-10-23T15:36:53;73.70;;;45.42;;
25824;SDS011;13658;44.534;18.694;2022-10-23T15:39:22;63.75;;;37.50;;
25824;SDS011;13658;44.534;18.694;2022-10-23T15:41:50;55.17;;;32.92;;
25824;SDS011;13658;44.534;18.694;2022-10-23T15:44:19;50.55;;;29.08;;
25824;SDS011;13658;44.534;18.694;2022-10-23T15:46:47;41.47;;;25.17;;
25824;SDS011;13658;44.534;18.694;2022-10-23T15:49:13;41.47;;;24.83;;
25824;SDS011;13658;44.534;18.694;2022-10-23T15:51:40;44.67;;;25.58;;
25824;SDS011;13658;44.534;18.694;2022-10-23T15:54:06;40.28;;;23.38;;
25824;SDS011;13658;44.534;18.694;2022-10-23T15:56:34;48.67;;;29.95;;
25824;SDS011;13658;44.534;18.694;2022-10-23T15:59:01;133.52;;;76.97;;
25824;SDS011;13658;44.534;18.694;2022-10-23T16:01:27;128.90;;;75.43;;
25824;SDS011;13658;44.534;18.694;2022-10-23T16:03:53;123.47;;;72.32;;
25824;SDS011;13658;44.534;18.694;2022-10-23T16:06:19;112.20;;;65.18;;
25824;SDS011;13658;44.534;18.694;2022-10-23T16:08:47;89.22;;;53.72;;
25824;SDS011;13658;44.534;18.694;2022-10-23T16:13:46;50.72;;;31.60;;
25824;SDS011;13658;44.534;18.694;2022-10-23T16:16:12;46.35;;;29.80;;
25824;SDS011;13658;44.534;18.694;2022-10-23T16:18:39;56.95;;;30.92;;
25824;SDS011;13658;44.534;18.694;2022-10-23T16:21:06;61.90;;;35.90;;
25824;SDS011;13658;44.534;18.694;2022-10-23T16:23:32;70.90;;;44.33;;
25824;SDS011;13658;44.534;18.694;2022-10-23T16:26:02;73.80;;;46.13;;
25824;SDS011;13658;44.534;18.694;2022-10-23T16:28:29;53.90;;;34.40;;
25824;SDS011;13658;44.534;18.694;2022-10-23T16:30:55;61.70;;;36.88;;
25824;SDS011;13658;44.534;18.694;2022-10-23T16:33:21;68.90;;;43.75;;
25824;SDS011;13658;44.534;18.694;2022-10-23T16:35:47;65.25;;;37.67;;